マレ の空港の天気 - METARとTAF

マレ国際空港 ( VRMM / MLE ) - モルディブ Hulhule Island, North Male Atoll
飛行場実況気象(Metar)
観測時間11/27 14:00 MVT (11/27 09:00 UTC)
風向・風速西南西 4m/s
視程10km以上
天気現象
全天の4割程度の雲 雲底高度 550m
気温30℃
湿度75%
気圧1007hPa
METARVRMM 270900Z 25007KT 9999 SCT018TCU 30/25 Q1007 NOSIG
過去の天気等 Google飛行場航空写真 Wunderground天気予報

過去48時間のMETAR

飛行場予報(TAF)
発表時間: 11/27 10:00 MVT (11/27 05:00 UTC)
予報対象時間: 27日11時 MVT ~ 28日17時 MVT
風向・風速南南西 3m/s
視程10km以上
少しの雲 雲底高度 550m
27日11時 MVT ~ 27日17時 MVT に一時的に
少しの積乱雲 雲底高度 580m
TAF VRMM 270500Z 2706/2812 20005KT 9999 FEW018
TEMPO 2706/2712 FEW019CB